Time;durP1;ratioP1;P1;durP2;ratioP2;P2;SDS_P1;SDS_P2;PMS_P1;PMS_P2;Temp;Humidity;BMP_temperature;BMP_pressure;BME280_temperature;BME280_humidity;BME280_pressure;Samples;Min_cycle;Max_cycle;Signal;HPM_P1;HPM_P2
2023/08/24 00:01:42;;;;;;;7.90;4.70;;;;;;;16.02;77.60;99707.41;434969;1253;168262;-59
2023/08/24 00:11:49;;;;;;;5.10;4.60;;;;;;;16.07;78.03;99700.70;435842;1257;139233;-59
2023/08/24 00:21:55;;;;;;;7.60;4.30;;;;;;;16.08;78.37;99704.77;435916;1254;139801;-59
2023/08/24 00:32:02;;;;;;;5.80;4.70;;;;;;;16.10;78.59;99699.64;435334;1253;140730;-59
2023/08/24 00:42:13;;;;;;;6.90;4.90;;;;;;;16.11;78.64;99702.42;435400;1257;139790;-58
2023/08/24 00:52:19;;;;;;;9.40;4.70;;;;;;;16.06;78.83;99705.17;435882;1256;140523;-58
2023/08/24 01:02:25;;;;;;;7.70;4.90;;;;;;;15.90;79.23;99702.21;435317;1256;139778;-59
2023/08/24 01:12:43;;;;;;;4.50;4.10;;;;;;;15.70;79.23;99704.41;435160;1253;139245;-61
2023/08/24 01:22:58;;;;;;;4.80;4.20;;;;;;;15.47;79.77;99699.77;435115;1253;139244;-60
2023/08/24 01:33:11;;;;;;;8.10;4.70;;;;;;;15.30;80.02;99692.55;435304;1253;138960;-58
2023/08/24 01:43:19;;;;;;;6.40;4.80;;;;;;;15.15;80.47;99695.68;435315;1254;139124;-58
2023/08/24 01:53:45;;;;;;;5.70;4.30;;;;;;;15.04;80.87;99691.46;435064;1254;139494;-59
2023/08/24 02:03:51;;;;;;;6.40;4.20;;;;;;;14.90;80.92;99688.55;435678;1253;140713;-60
2023/08/24 02:13:57;;;;;;;7.50;4.90;;;;;;;14.77;81.13;99680.02;435237;1257;140586;-58
2023/08/24 02:24:03;;;;;;;6.20;4.30;;;;;;;14.68;81.31;99681.09;435285;1257;139815;-59
2023/08/24 02:34:09;;;;;;;4.30;4.00;;;;;;;14.60;81.66;99682.75;435211;1256;139229;-59
2023/08/24 02:44:14;;;;;;;9.50;6.00;;;;;;;14.54;81.71;99676.34;435255;1254;140405;-59
2023/08/24 02:54:20;;;;;;;6.90;4.50;;;;;;;14.45;81.91;99680.75;435215;1254;139373;-58
2023/08/24 03:04:26;;;;;;;8.50;4.60;;;;;;;14.37;81.81;99677.66;435315;1253;139338;-58
2023/08/24 03:14:32;;;;;;;8.50;5.60;;;;;;;14.25;82.01;99674.05;435422;1253;140915;-58
2023/08/24 03:24:38;;;;;;;4.80;4.10;;;;;;;14.17;82.44;99671.81;435211;1253;140426;-58
2023/08/24 03:34:43;;;;;;;6.60;4.80;;;;;;;14.12;82.82;99672.06;435255;1254;140373;-61
2023/08/24 03:44:49;;;;;;;9.70;4.90;;;;;;;14.08;82.86;99669.52;435722;1253;140298;-59
2023/08/24 03:54:55;;;;;;;6.70;4.40;;;;;;;14.08;83.00;99670.40;435195;1254;139429;-59
2023/08/24 04:05:01;;;;;;;5.70;4.40;;;;;;;14.27;83.48;99670.52;435194;1257;140309;-59
2023/08/24 04:15:10;;;;;;;7.90;5.20;;;;;;;14.55;83.43;99678.08;435597;1253;139405;-58
2023/08/24 04:25:15;;;;;;;10.40;9.20;;;;;;;14.88;82.94;99681.67;435219;1256;140435;-61
2023/08/24 04:35:21;;;;;;;11.30;6.80;;;;;;;15.27;82.36;99680.10;435350;1256;139730;-59
2023/08/24 04:45:27;;;;;;;10.50;5.10;;;;;;;15.72;81.44;99681.83;435290;1257;139897;-59
2023/08/24 04:55:33;;;;;;;13.70;5.20;;;;;;;16.20;80.19;99679.22;435248;1256;140411;-59
2023/08/24 05:05:39;;;;;;;12.80;5.00;;;;;;;16.72;79.53;99680.41;435624;1257;139638;-59
2023/08/24 05:15:45;;;;;;;10.30;4.90;;;;;;;17.38;78.99;99682.67;435477;1253;140226;-59
2023/08/24 05:25:50;;;;;;;8.40;4.10;;;;;;;21.36;82.01;99676.85;435521;1257;139740;-61
2023/08/24 05:35:56;;;;;;;4.30;3.20;;;;;;;28.45;70.69;99678.67;435312;1253;139050;-59
2023/08/24 05:46:03;;;;;;;10.70;3.90;;;;;;;33.63;55.51;99676.48;435336;1257;139877;-59
2023/08/24 05:56:08;;;;;;;7.80;4.20;;;;;;;37.56;45.86;99665.92;435112;1257;139731;-59
2023/08/24 06:06:14;;;;;;;5.60;2.90;;;;;;;40.22;38.97;99664.70;435377;1257;139455;-63
2023/08/24 06:16:20;;;;;;;4.70;2.40;;;;;;;43.33;33.94;99662.80;435241;1253;139928;-63
2023/08/24 06:26:26;;;;;;;5.90;2.80;;;;;;;46.13;29.37;99669.72;435368;1256;138611;-68
2023/08/24 06:36:32;;;;;;;4.50;2.20;;;;;;;47.94;25.64;99669.34;435971;1253;139136;-69
2023/08/24 06:46:37;;;;;;;4.90;2.70;;;;;;;49.37;23.45;99664.34;435286;1254;138579;-66
2023/08/24 06:56:43;;;;;;;3.00;2.20;;;;;;;50.44;21.46;99664.80;435304;1257;139395;-68
2023/08/24 07:06:51;;;;;;;2.80;2.50;;;;;;;51.45;20.15;99664.33;435457;1253;139672;-61
2023/08/24 07:16:55;;;;;;;;;;;;;;;52.88;18.83;99661.76;435545;1255;138516;-62
2023/08/24 07:27:01;;;;;;;4.10;3.30;;;;;;;54.00;17.62;99662.63;435288;1258;125285;-62
2023/08/24 07:37:07;;;;;;;4.20;3.80;;;;;;;55.36;16.33;99660.29;435251;1253;139118;-67
2023/08/24 07:47:13;;;;;;;4.40;4.10;;;;;;;55.87;15.65;99666.02;435468;1253;138878;-65
2023/08/24 07:57:19;;;;;;;5.30;4.70;;;;;;;55.99;15.21;99663.88;435699;1253;138809;-65
2023/08/24 08:07:24;;;;;;;5.70;4.70;;;;;;;56.10;14.70;99663.26;435509;1257;138945;-64
2023/08/24 08:17:30;;;;;;;3.50;3.30;;;;;;;56.44;14.16;99662.39;435464;1258;138880;-66
2023/08/24 08:27:35;;;;;;;;;;;;;;;55.31;13.94;99651.17;435894;1258;138481;-64
2023/08/24 08:37:41;;;;;;;2.20;2.00;;;;;;;50.38;15.27;99640.19;435652;1257;126810;-67
2023/08/24 08:47:47;;;;;;;4.30;1.90;;;;;;;44.89;17.97;99647.10;435298;1253;139978;-63
2023/08/24 08:57:58;;;;;;;3.70;2.60;;;;;;;41.16;19.83;99644.25;435803;1257;140026;-62
2023/08/24 09:08:06;;;;;;;3.90;2.60;;;;;;;38.11;22.18;99643.59;435461;1253;139107;-66
2023/08/24 09:18:11;;;;;;;6.90;1.70;;;;;;;36.54;23.83;99647.15;435703;1257;139966;-64
2023/08/24 09:28:25;;;;;;;3.10;1.60;;;;;;;35.09;24.93;99649.98;435927;1257;160949;-66
2023/08/24 09:38:31;;;;;;;2.90;1.30;;;;;;;33.90;26.17;99641.33;435772;1257;138883;-63
2023/08/24 09:48:37;;;;;;;7.90;1.90;;;;;;;33.01;27.11;99637.98;435862;1256;139154;-64
2023/08/24 09:58:49;;;;;;;5.80;1.80;;;;;;;32.65;28.20;99629.09;435449;1259;138628;-59
2023/08/24 10:09:01;;;;;;;1.40;1.20;;;;;;;32.53;28.77;99620.73;435746;1254;139223;-60
2023/08/24 10:19:08;;;;;;;2.80;1.60;;;;;;;32.63;29.24;99626.95;435545;1253;195734;-65
2023/08/24 10:29:15;;;;;;;3.30;1.70;;;;;;;32.23;29.45;99631.66;435517;1256;138679;-64
2023/08/24 10:39:27;;;;;;;2.50;1.70;;;;;;;31.64;30.20;99633.83;435514;1254;138556;-67
2023/08/24 10:49:34;;;;;;;1.90;1.20;;;;;;;31.18;31.04;99636.98;435348;1254;139943;-65
2023/08/24 10:59:40;;;;;;;4.60;1.50;;;;;;;30.82;31.56;99625.17;435647;1253;140025;-68
2023/08/24 11:09:56;;;;;;;3.50;1.50;;;;;;;30.42;32.27;99608.51;435518;1257;138325;-64
2023/08/24 11:20:04;;;;;;;2.50;1.40;;;;;;;30.59;32.66;99594.08;435470;1256;139642;-62
2023/08/24 11:30:12;;;;;;;2.00;1.20;;;;;;;30.35;32.45;99586.33;435561;1254;138526;-64
2023/08/24 11:40:20;;;;;;;5.90;1.70;;;;;;;29.73;32.89;99589.38;435537;1255;139926;-64
2023/08/24 11:50:27;;;;;;;2.90;1.60;;;;;;;29.22;33.97;99587.69;435375;1257;138419;-61
2023/08/24 12:00:33;;;;;;;3.00;1.60;;;;;;;28.95;34.32;99580.55;435221;1257;158290;-61
2023/08/24 12:10:44;;;;;;;2.60;1.80;;;;;;;28.63;34.85;99579.05;435230;1257;139575;-61
2023/08/24 12:20:50;;;;;;;2.60;2.40;;;;;;;28.38;35.28;99583.73;435233;1254;138813;-62
2023/08/24 12:30:57;;;;;;;5.80;2.20;;;;;;;28.23;35.59;99574.08;435522;1254;138401;-60
2023/08/24 12:41:03;;;;;;;4.60;2.20;;;;;;;28.08;36.33;99557.90;435738;1257;139345;-61
2023/08/24 12:51:09;;;;;;;3.20;2.00;;;;;;;27.90;36.51;99551.73;435669;1257;138289;-61
2023/08/24 13:01:15;;;;;;;5.20;2.10;;;;;;;27.75;36.49;99543.13;435185;1257;139144;-62
2023/08/24 13:11:21;;;;;;;1.80;1.40;;;;;;;27.66;36.39;99533.15;435304;1257;140110;-61
2023/08/24 13:21:28;;;;;;;5.10;1.90;;;;;;;27.65;36.69;99522.36;435735;1257;138589;-62
2023/08/24 13:31:35;;;;;;;3.90;2.50;;;;;;;27.48;36.50;99514.96;435591;1254;140126;-65
2023/08/24 13:41:41;;;;;;;3.30;1.70;;;;;;;27.41;36.84;99506.44;435530;1258;138510;-63
2023/08/24 13:51:47;;;;;;;5.20;2.60;;;;;;;27.53;37.05;99507.88;435959;1258;139142;-69
2023/08/24 14:01:53;;;;;;;2.30;1.70;;;;;;;27.65;37.23;99503.48;435724;1257;142088;-64
2023/08/24 14:12:00;;;;;;;3.80;1.90;;;;;;;27.54;36.74;99502.65;435491;1255;138510;-65
2023/08/24 14:22:06;;;;;;;4.20;2.60;;;;;;;27.25;36.73;99505.30;435538;1257;138888;-66
2023/08/24 14:32:13;;;;;;;3.50;2.00;;;;;;;27.02;37.07;99496.64;435559;1257;141844;-64
2023/08/24 14:42:19;;;;;;;5.20;3.00;;;;;;;26.74;37.84;99501.64;435616;1254;139462;-66
2023/08/24 14:52:25;;;;;;;4.60;2.00;;;;;;;26.63;38.35;99490.58;435858;1257;138697;-66
2023/08/24 15:02:31;;;;;;;4.30;2.00;;;;;;;26.59;38.40;99478.19;435799;1255;138879;-69
2023/08/24 15:12:36;;;;;;;;;;;;;;;26.52;38.53;99469.62;436099;1253;138551;-66
2023/08/24 15:22:42;;;;;;;1.80;1.50;;;;;;;26.29;38.53;99463.84;435640;1257;126541;-65
2023/08/24 15:32:48;;;;;;;;;;;;;;;25.98;39.18;99462.86;435537;1254;138629;-67
2023/08/24 15:42:54;;;;;;;5.70;1.70;;;;;;;25.80;40.08;99441.96;435265;1254;126737;-65
2023/08/24 15:53:00;;;;;;;2.60;1.30;;;;;;;25.66;40.40;99429.98;435472;1255;138892;-65
2023/08/24 16:03:06;;;;;;;5.00;1.80;;;;;;;25.59;40.38;99426.93;435471;1254;138576;-66
2023/08/24 16:13:13;;;;;;;2.80;1.20;;;;;;;25.56;40.11;99429.41;436717;1254;139950;-66
2023/08/24 16:23:21;;;;;;;2.40;1.60;;;;;;;25.54;40.36;99438.48;435449;1254;140919;-65
2023/08/24 16:33:27;;;;;;;3.70;1.30;;;;;;;25.57;40.51;99431.30;435736;1257;139285;-64
2023/08/24 16:43:33;;;;;;;5.50;1.80;;;;;;;25.53;40.86;99426.06;435176;1256;138951;-65
2023/08/24 16:53:40;;;;;;;2.50;1.20;;;;;;;25.14;41.58;99418.09;435390;1255;138815;-65
2023/08/24 17:03:46;;;;;;;7.90;2.80;;;;;;;24.78;42.42;99410.64;435462;1254;139262;-64
2023/08/24 17:13:53;;;;;;;5.20;2.30;;;;;;;24.43;43.46;99402.04;435316;1254;138689;-65
2023/08/24 17:23:59;;;;;;;9.10;3.00;;;;;;;24.05;45.01;99406.39;435528;1253;139068;-65
2023/08/24 17:34:07;;;;;;;4.30;2.20;;;;;;;23.60;46.30;99401.59;435246;1254;138497;-65
2023/08/24 17:44:13;;;;;;;3.00;1.90;;;;;;;23.22;46.21;99398.45;435608;1252;138494;-65
2023/08/24 17:54:19;;;;;;;8.80;3.10;;;;;;;22.90;48.27;99423.63;435658;1257;138808;-66
2023/08/24 18:04:25;;;;;;;3.90;2.10;;;;;;;22.47;50.64;99439.77;435372;1254;138846;-66
2023/08/24 18:14:30;;;;;;;5.50;2.20;;;;;;;22.04;51.57;99432.35;435380;1254;139015;-65
2023/08/24 18:24:36;;;;;;;9.80;4.70;;;;;;;21.69;52.52;99439.38;435444;1253;138528;-65
2023/08/24 18:34:42;;;;;;;8.70;3.50;;;;;;;21.34;55.14;99454.73;435435;1254;140128;-66
2023/08/24 18:44:48;;;;;;;10.60;4.60;;;;;;;21.07;56.40;99461.71;435223;1254;138399;-63
2023/08/24 18:54:54;;;;;;;7.80;4.20;;;;;;;20.72;57.60;99461.70;435450;1257;141789;-62
2023/08/24 19:05:03;;;;;;;5.10;3.90;;;;;;;20.45;58.82;99461.08;435833;1257;141336;-63
2023/08/24 19:15:10;;;;;;;6.30;4.50;;;;;;;20.22;59.79;99453.16;435681;1254;139196;-62
2023/08/24 19:25:16;;;;;;;14.60;5.90;;;;;;;20.01;60.70;99455.17;435965;1254;139264;-62
2023/08/24 19:35:23;;;;;;;33.10;15.50;;;;;;;19.79;61.52;99443.30;435895;1257;139857;-63
2023/08/24 19:45:30;;;;;;;34.30;19.20;;;;;;;19.61;61.72;99438.00;435682;1254;139683;-64
2023/08/24 19:55:37;;;;;;;22.10;12.10;;;;;;;19.47;62.73;99426.22;435467;1253;140069;-63
2023/08/24 20:05:43;;;;;;;27.90;18.10;;;;;;;19.28;63.06;99423.54;435624;1255;141657;-62
2023/08/24 20:15:49;;;;;;;26.60;17.00;;;;;;;19.08;63.96;99419.71;435466;1254;140104;-63
2023/08/24 20:25:55;;;;;;;34.30;20.40;;;;;;;18.88;64.65;99413.15;435276;1253;139952;-63
2023/08/24 20:36:02;;;;;;;20.70;13.30;;;;;;;18.69;65.02;99412.63;435364;1257;140446;-63
2023/08/24 20:46:08;;;;;;;19.40;13.50;;;;;;;18.59;65.05;99417.65;435569;1253;139595;-63
2023/08/24 20:56:14;;;;;;;15.00;8.40;;;;;;;18.50;65.44;99413.61;435397;1254;139510;-63
2023/08/24 21:06:20;;;;;;;9.70;5.30;;;;;;;18.40;65.68;99408.90;435706;1257;140788;-62
2023/08/24 21:16:27;;;;;;;7.80;5.10;;;;;;;18.32;65.25;99403.34;435450;1254;139541;-64
2023/08/24 21:26:34;;;;;;;17.10;5.50;;;;;;;18.23;65.27;99397.33;435628;1253;139474;-62
2023/08/24 21:36:40;;;;;;;4.90;4.50;;;;;;;18.11;65.73;99385.89;435323;1254;139401;-63
2023/08/24 21:46:46;;;;;;;7.70;5.20;;;;;;;17.99;65.66;99369.69;435215;1253;139394;-63
2023/08/24 21:56:52;;;;;;;7.10;5.70;;;;;;;17.92;65.61;99363.41;435413;1257;140164;-65
2023/08/24 22:06:58;;;;;;;6.80;5.30;;;;;;;17.91;65.84;99353.05;435425;1253;140904;-66
2023/08/24 22:17:04;;;;;;;5.60;4.80;;;;;;;17.92;65.94;99361.15;435451;1254;141750;-64
2023/08/24 22:27:10;;;;;;;6.30;5.00;;;;;;;17.93;66.09;99358.04;435716;1254;140676;-66
2023/08/24 22:37:16;;;;;;;7.00;5.90;;;;;;;17.97;66.12;99332.91;435816;1254;139413;-66
2023/08/24 22:47:22;;;;;;;8.40;6.20;;;;;;;18.00;66.35;99321.11;435699;1253;139537;-66
2023/08/24 22:57:28;;;;;;;11.50;6.60;;;;;;;18.03;66.56;99304.33;435525;1254;140203;-65
2023/08/24 23:07:34;;;;;;;6.60;5.80;;;;;;;18.04;66.68;99295.94;435496;1256;140423;-66
2023/08/24 23:17:40;;;;;;;7.10;6.40;;;;;;;18.04;66.96;99285.25;435593;1252;139256;-67
2023/08/24 23:27:46;;;;;;;11.20;6.90;;;;;;;18.03;67.18;99279.20;435555;1257;139140;-66
2023/08/24 23:37:52;;;;;;;8.60;7.20;;;;;;;17.99;67.36;99292.34;435815;1257;139458;-65
2023/08/24 23:47:58;;;;;;;7.30;6.40;;;;;;;17.90;67.70;99305.59;435885;1254;140064;-65
2023/08/24 23:58:05;;;;;;;8.70;7.20;;;;;;;17.80;68.03;99310.45;435565;1255;139211;-66
